Time;durP1;ratioP1;P1;durP2;ratioP2;P2;SDS_P1;SDS_P2;PMS_P1;PMS_P2;Temp;Humidity;BMP_temperature;BMP_pressure;BME280_temperature;BME280_humidity;BME280_pressure;Samples;Min_cycle;Max_cycle;Signal;HPM_P1;HPM_P2
2023/07/13 00:00:47;;;;;;;4.03;0.63;;;15.90;99.90;;;;;;5049444;28;21363;-73
2023/07/13 00:03:13;;;;;;;4.15;0.68;;;15.90;99.90;;;;;;5039097;28;20051;-72
2023/07/13 00:05:41;;;;;;;3.35;0.50;;;15.90;99.90;;;;;;5054492;28;20039;-73
2023/07/13 00:08:08;;;;;;;2.80;0.70;;;15.90;99.90;;;;;;5057976;28;20044;-72
2023/07/13 00:10:40;;;;;;;2.97;0.55;;;15.90;99.90;;;;;;5073444;28;20807;-73
2023/07/13 00:13:08;;;;;;;3.15;0.50;;;15.90;99.90;;;;;;5039470;28;20040;-72
2023/07/13 00:15:35;;;;;;;5.53;0.70;;;15.90;99.90;;;;;;5051634;28;20031;-72
2023/07/13 00:18:02;;;;;;;4.10;1.08;;;15.90;99.90;;;;;;5049681;28;20507;-72
2023/07/13 00:20:28;;;;;;;4.35;0.63;;;15.90;99.90;;;;;;5050829;28;20035;-72
2023/07/13 00:22:55;;;;;;;2.85;0.88;;;15.90;99.90;;;;;;5037859;28;20036;-72
2023/07/13 00:25:24;;;;;;;3.67;0.70;;;16.00;99.90;;;;;;5048943;28;20037;-72
2023/07/13 00:27:51;;;;;;;3.25;0.52;;;16.00;99.90;;;;;;5058886;28;20411;-73
2023/07/13 00:30:18;;;;;;;3.67;0.57;;;16.10;99.90;;;;;;5041604;28;20028;-72
2023/07/13 00:32:44;;;;;;;2.70;0.50;;;16.20;99.90;;;;;;5043307;28;20039;-72
2023/07/13 00:35:14;;;;;;;2.15;0.50;;;16.20;99.90;;;;;;5049831;28;20028;-72
2023/07/13 00:37:41;;;;;;;3.83;0.68;;;16.20;99.90;;;;;;5066206;28;20032;-72
2023/07/13 00:40:10;;;;;;;2.35;0.50;;;16.10;99.90;;;;;;5063905;28;20133;-72
2023/07/13 00:42:36;;;;;;;2.67;0.50;;;16.10;99.90;;;;;;5020858;28;20051;-73
2023/07/13 00:45:26;;;;;;;4.07;0.95;;;16.10;99.90;;;;;;5033560;28;20063;-73
2023/07/13 00:47:53;;;;;;;2.97;0.40;;;16.00;99.90;;;;;;5043034;28;20039;-72
2023/07/13 00:50:21;;;;;;;5.03;0.70;;;16.00;99.90;;;;;;5057560;28;20465;-72
2023/07/13 00:52:53;;;;;;;3.17;0.60;;;15.90;99.90;;;;;;5048501;28;20051;-72
2023/07/13 00:55:21;;;;;;;2.50;0.50;;;15.90;99.90;;;;;;5055086;28;20533;-72
2023/07/13 00:57:49;;;;;;;3.58;0.57;;;15.80;99.90;;;;;;5052553;28;20039;-72
2023/07/13 01:00:16;;;;;;;3.63;0.40;;;15.80;99.90;;;;;;5054586;28;20043;-73
2023/07/13 01:02:46;;;;;;;4.93;0.73;;;15.80;99.90;;;;;;5044630;28;20040;-73
2023/07/13 01:05:14;;;;;;;3.33;0.80;;;15.80;99.90;;;;;;5058326;28;20027;-72
2023/07/13 01:07:43;;;;;;;2.45;0.40;;;15.70;99.90;;;;;;5059980;28;20040;-73
2023/07/13 01:10:14;;;;;;;4.00;0.50;;;15.70;99.90;;;;;;5044706;28;20046;-72
2023/07/13 01:12:40;;;;;;;2.42;0.50;;;15.70;99.90;;;;;;5028455;28;20627;-73
2023/07/13 01:15:39;;;;;;;3.13;0.38;;;15.70;99.90;;;;;;5046363;28;21554;-72
2023/07/13 01:18:10;;;;;;;1.70;0.50;;;15.60;99.90;;;;;;5047101;28;20044;-73
2023/07/13 01:20:37;;;;;;;4.80;0.52;;;15.60;99.90;;;;;;5051663;28;20036;-72
2023/07/13 01:23:12;;;;;;;3.03;0.50;;;15.60;99.90;;;;;;5039634;28;20032;-72
2023/07/13 01:25:39;;;;;;;2.78;0.60;;;15.50;99.90;;;;;;5046505;28;20040;-72
2023/07/13 01:28:11;;;;;;;3.20;0.50;;;15.50;99.90;;;;;;5052881;28;20785;-72
2023/07/13 01:30:39;;;;;;;3.38;0.60;;;15.50;99.90;;;;;;5056640;28;20383;-72
2023/07/13 01:33:07;;;;;;;2.53;0.50;;;15.50;99.90;;;;;;5048686;28;20788;-73
2023/07/13 01:35:34;;;;;;;2.78;0.40;;;15.50;99.90;;;;;;5031457;28;21697;-72
2023/07/13 01:38:01;;;;;;;2.53;0.40;;;15.50;99.90;;;;;;5049601;28;20036;-73
2023/07/13 01:40:28;;;;;;;2.88;0.40;;;15.50;99.90;;;;;;5050883;28;20703;-72
2023/07/13 01:42:55;;;;;;;3.78;0.60;;;15.50;99.90;;;;;;5038556;28;20032;-72
2023/07/13 01:45:23;;;;;;;3.42;0.70;;;15.50;99.90;;;;;;5047680;28;20497;-72
2023/07/13 01:47:49;;;;;;;2.63;0.57;;;15.50;99.90;;;;;;5051467;28;20629;-72
2023/07/13 01:50:16;;;;;;;3.05;0.55;;;15.50;99.90;;;;;;5039307;28;20040;-72
2023/07/13 01:52:42;;;;;;;2.92;0.63;;;15.50;99.90;;;;;;5030255;28;20051;-72
2023/07/13 01:55:09;;;;;;;4.18;0.50;;;15.60;99.90;;;;;;5051685;28;20416;-72
2023/07/13 01:57:35;;;;;;;2.95;0.70;;;15.60;99.90;;;;;;5051312;28;20398;-72
2023/07/13 02:00:07;;;;;;;3.00;0.50;;;15.60;99.90;;;;;;5048879;28;20502;-72
2023/07/13 02:02:42;;;;;;;3.30;0.73;;;15.60;99.90;;;;;;5039780;28;20631;-72
2023/07/13 02:05:11;;;;;;;2.65;0.70;;;15.50;99.90;;;;;;5052057;28;20467;-72
2023/07/13 02:07:38;;;;;;;3.15;0.60;;;15.50;99.90;;;;;;5052805;28;20028;-73
2023/07/13 02:10:06;;;;;;;5.32;0.80;;;15.60;99.90;;;;;;5073303;28;20310;-73
2023/07/13 02:12:33;;;;;;;3.22;0.70;;;15.50;99.90;;;;;;5049370;28;20047;-73
2023/07/13 02:15:00;;;;;;;3.67;0.70;;;15.50;99.90;;;;;;5060193;28;20040;-72
2023/07/13 02:17:27;;;;;;;2.05;0.50;;;15.50;99.90;;;;;;5052036;28;21595;-72
2023/07/13 02:19:54;;;;;;;5.15;1.42;;;15.40;99.90;;;;;;5054251;28;20394;-72
2023/07/13 02:22:21;;;;;;;6.28;0.80;;;15.40;99.90;;;;;;5043545;28;20039;-73
2023/07/13 02:24:48;;;;;;;5.72;0.63;;;15.40;99.90;;;;;;5053099;28;20043;-73
2023/07/13 02:27:16;;;;;;;3.03;0.60;;;15.30;99.90;;;;;;5051770;28;20054;-73
2023/07/13 02:29:43;;;;;;;6.10;1.40;;;15.30;99.90;;;;;;5054746;28;20047;-73
2023/07/13 02:32:09;;;;;;;2.00;0.68;;;15.30;99.90;;;;;;5068127;28;21032;-72
2023/07/13 02:34:36;;;;;;;4.55;0.90;;;15.30;99.90;;;;;;5042502;28;20051;-73
2023/07/13 02:37:04;;;;;;;3.28;0.70;;;15.30;99.90;;;;;;5042152;28;20039;-73
2023/07/13 02:39:32;;;;;;;7.18;1.15;;;15.20;99.90;;;;;;5049788;28;20032;-72
2023/07/13 02:42:00;;;;;;;3.00;0.80;;;15.20;99.90;;;;;;5045055;28;20045;-72
2023/07/13 02:44:27;;;;;;;5.13;1.40;;;15.20;99.90;;;;;;5049579;28;20506;-72
2023/07/13 02:46:53;;;;;;;3.53;0.90;;;15.20;99.90;;;;;;5049634;28;20509;-72
2023/07/13 02:49:20;;;;;;;5.63;1.33;;;15.20;99.90;;;;;;5051803;28;20040;-72
2023/07/13 02:51:47;;;;;;;2.97;0.70;;;15.20;99.90;;;;;;5052386;28;20039;-72
2023/07/13 02:54:14;;;;;;;6.45;1.88;;;15.20;99.90;;;;;;5055203;28;20032;-72
2023/07/13 02:56:41;;;;;;;6.35;1.55;;;15.10;99.90;;;;;;5042325;28;20036;-72
2023/07/13 02:59:07;;;;;;;4.97;1.17;;;15.10;99.90;;;;;;5052270;28;20024;-73
2023/07/13 03:01:35;;;;;;;5.95;1.40;;;15.10;99.90;;;;;;5018219;28;20043;-72
2023/07/13 03:04:02;;;;;;;4.05;0.90;;;15.00;99.90;;;;;;5030942;28;20058;-73
2023/07/13 03:06:32;;;;;;;4.05;0.90;;;15.00;99.90;;;;;;5068793;28;20043;-72
2023/07/13 03:09:00;;;;;;;2.53;0.88;;;15.00;99.90;;;;;;5052063;28;20040;-72
2023/07/13 03:11:27;;;;;;;3.53;0.93;;;15.00;99.90;;;;;;5039180;28;20047;-72
2023/07/13 03:14:05;;;;;;;4.18;1.05;;;15.00;99.90;;;;;;5041646;28;20032;-72
2023/07/13 03:16:36;;;;;;;6.32;1.00;;;15.00;99.90;;;;;;5057075;28;20280;-72
2023/07/13 03:19:02;;;;;;;5.93;1.80;;;14.90;99.90;;;;;;5017744;28;20043;-72
2023/07/13 03:21:30;;;;;;;6.18;1.23;;;15.00;99.90;;;;;;5036372;28;20036;-72
2023/07/13 03:23:56;;;;;;;4.20;0.90;;;15.00;99.90;;;;;;5043778;28;20039;-72
2023/07/13 03:26:22;;;;;;;4.18;0.80;;;14.90;99.90;;;;;;5051122;28;20036;-72
2023/07/13 03:28:49;;;;;;;4.32;1.20;;;14.90;99.90;;;;;;5050885;28;20042;-72
2023/07/13 03:31:25;;;;;;;3.85;0.80;;;14.90;99.90;;;;;;5038620;28;20044;-72
2023/07/13 03:33:52;;;;;;;2.38;0.70;;;14.90;99.90;;;;;;5033683;28;20040;-72
2023/07/13 03:36:22;;;;;;;5.88;1.40;;;14.90;99.90;;;;;;5042835;28;20419;-72
2023/07/13 03:38:55;;;;;;;4.30;1.27;;;14.90;99.90;;;;;;5070410;28;20039;-72
2023/07/13 03:41:25;;;;;;;4.32;1.13;;;14.90;99.90;;;;;;5034720;28;20046;-73
2023/07/13 03:43:54;;;;;;;4.25;0.80;;;14.80;99.90;;;;;;5041263;28;20502;-72
2023/07/13 03:46:23;;;;;;;4.22;1.42;;;14.80;99.90;;;;;;5049144;28;20027;-72
2023/07/13 03:48:50;;;;;;;4.43;0.90;;;14.80;99.90;;;;;;5034440;28;20054;-72
2023/07/13 03:51:18;;;;;;;4.43;1.08;;;14.80;99.90;;;;;;5050958;28;20032;-72
2023/07/13 03:53:47;;;;;;;6.68;1.38;;;14.80;99.90;;;;;;5033172;28;20040;-72
2023/07/13 03:56:18;;;;;;;6.63;1.35;;;14.80;99.90;;;;;;5042249;28;20047;-72
2023/07/13 03:58:46;;;;;;;8.85;1.33;;;14.80;99.90;;;;;;5038822;28;20032;-72
2023/07/13 04:01:24;;;;;;;8.40;1.42;;;14.80;99.90;;;;;;5051493;28;20050;-72
2023/07/13 04:03:52;;;;;;;6.95;1.65;;;14.80;99.90;;;;;;5041074;28;20035;-72
2023/07/13 04:06:26;;;;;;;6.10;0.77;;;14.80;99.90;;;;;;5035532;28;20044;-72
2023/07/13 04:08:58;;;;;;;3.53;1.30;;;14.80;99.90;;;;;;5052824;28;20043;-72
2023/07/13 04:11:27;;;;;;;;;;;14.90;99.90;;;;;;5069339;28;20490;-72
2023/07/13 04:13:53;;;;;;;4.60;1.02;;;14.80;99.90;;;;;;5050047;28;19916;-72
2023/07/13 04:16:20;;;;;;;5.35;1.45;;;14.90;99.90;;;;;;5039964;28;20031;-72
2023/07/13 04:18:48;;;;;;;5.32;1.33;;;14.90;99.90;;;;;;5054965;28;20032;-72
2023/07/13 04:21:15;;;;;;;5.20;1.13;;;14.90;99.90;;;;;;5051019;28;20049;-71
2023/07/13 04:23:41;;;;;;;6.60;2.15;;;14.90;99.90;;;;;;5042843;28;20032;-72
2023/07/13 04:26:09;;;;;;;6.38;1.70;;;15.00;99.90;;;;;;5051142;28;20044;-72
2023/07/13 04:28:35;;;;;;;8.25;2.80;;;15.00;99.90;;;;;;5049438;28;20035;-72
2023/07/13 04:31:02;;;;;;;6.15;1.98;;;15.10;99.90;;;;;;5051791;28;20039;-72
2023/07/13 04:33:28;;;;;;;4.50;1.77;;;15.10;99.90;;;;;;5048607;28;20577;-72
2023/07/13 04:35:57;;;;;;;7.93;1.63;;;15.20;99.90;;;;;;5059758;28;20028;-72
2023/07/13 04:38:27;;;;;;;6.13;2.00;;;15.30;99.90;;;;;;5053494;28;20518;-72
2023/07/13 04:41:00;;;;;;;9.25;2.80;;;15.30;99.90;;;;;;5051536;28;20035;-72
2023/07/13 04:43:27;;;;;;;6.05;2.25;;;15.50;99.90;;;;;;5041972;28;20971;-75
2023/07/13 04:45:55;;;;;;;6.85;2.53;;;15.50;99.90;;;;;;5068157;28;20699;-73
2023/07/13 04:48:22;;;;;;;7.13;2.05;;;15.60;99.90;;;;;;5027405;28;20040;-74
2023/07/13 04:50:54;;;;;;;10.23;3.50;;;15.70;99.90;;;;;;5047915;28;20032;-74
2023/07/13 04:53:21;;;;;;;10.85;3.08;;;15.80;99.90;;;;;;5047685;28;20488;-73
2023/07/13 04:55:47;;;;;;;7.90;2.15;;;15.90;99.90;;;;;;5058079;28;20044;-72
2023/07/13 04:58:14;;;;;;;8.57;2.75;;;16.00;99.90;;;;;;5055932;28;20506;-72
2023/07/13 05:00:40;;;;;;;10.68;4.43;;;16.10;99.90;;;;;;5063135;28;20699;-73
2023/07/13 05:03:07;;;;;;;12.02;3.13;;;16.20;99.90;;;;;;5035782;28;20036;-73
2023/07/13 05:05:33;;;;;;;9.65;3.10;;;16.20;99.90;;;;;;5045867;28;20060;-75
2023/07/13 05:08:00;;;;;;;7.35;2.40;;;16.30;99.90;;;;;;5047542;28;20035;-73
2023/07/13 05:10:26;;;;;;;6.15;2.42;;;16.40;99.90;;;;;;5030812;28;20475;-72
2023/07/13 05:12:53;;;;;;;11.98;3.97;;;16.40;99.90;;;;;;5040495;28;20047;-74
2023/07/13 05:15:22;;;;;;;6.72;2.70;;;16.60;99.90;;;;;;5038833;28;20545;-72
2023/07/13 05:17:49;;;;;;;11.52;2.92;;;16.60;99.90;;;;;;5038800;28;20048;-72
2023/07/13 05:20:17;;;;;;;7.03;3.17;;;16.70;99.90;;;;;;5053117;28;20036;-73
2023/07/13 05:22:44;;;;;;;8.95;3.42;;;16.80;99.90;;;;;;5044621;28;20035;-72
2023/07/13 05:25:10;;;;;;;11.05;3.67;;;16.90;99.90;;;;;;5051867;28;20035;-72
2023/07/13 05:27:37;;;;;;;9.25;2.63;;;17.00;99.90;;;;;;5048571;28;20044;-73
2023/07/13 05:30:04;;;;;;;10.80;3.33;;;17.00;99.90;;;;;;5050380;28;20073;-72
2023/07/13 05:32:31;;;;;;;8.70;3.35;;;17.10;99.90;;;;;;5025683;28;21198;-74
2023/07/13 05:34:58;;;;;;;8.98;3.80;;;17.10;99.90;;;;;;5057950;28;20821;-72
2023/07/13 05:37:24;;;;;;;11.13;3.15;;;17.20;99.90;;;;;;5060397;28;20036;-73
2023/07/13 05:39:51;;;;;;;11.07;3.92;;;17.30;99.90;;;;;;5041974;28;20038;-73
2023/07/13 05:42:17;;;;;;;8.02;2.78;;;17.30;99.90;;;;;;5059607;28;20044;-72
2023/07/13 05:44:44;;;;;;;8.82;2.83;;;17.40;99.90;;;;;;5053083;28;20497;-72
2023/07/13 05:47:10;;;;;;;10.00;3.65;;;17.40;99.90;;;;;;5052642;28;20040;-72
2023/07/13 05:49:36;;;;;;;11.50;4.25;;;17.50;99.90;;;;;;5053242;28;20044;-73
2023/07/13 05:52:03;;;;;;;11.57;4.60;;;17.60;99.90;;;;;;5046172;28;20039;-72
2023/07/13 05:54:30;;;;;;;11.80;3.80;;;17.50;99.90;;;;;;5052227;28;20023;-74
2023/07/13 05:56:56;;;;;;;11.90;3.20;;;17.60;99.90;;;;;;5059516;28;20038;-74
2023/07/13 05:59:22;;;;;;;11.65;4.50;;;17.60;99.90;;;;;;5062527;28;20043;-73
2023/07/13 06:01:49;;;;;;;13.30;5.10;;;17.70;99.90;;;;;;5049633;28;20619;-73
2023/07/13 06:04:16;;;;;;;16.05;7.70;;;17.80;99.90;;;;;;5047322;28;20059;-74
2023/07/13 06:06:42;;;;;;;14.07;5.38;;;17.90;99.90;;;;;;5051632;28;20058;-73
2023/07/13 06:09:08;;;;;;;10.40;5.88;;;18.10;99.90;;;;;;5051201;28;23138;-73
2023/07/13 06:11:35;;;;;;;13.60;6.28;;;18.10;99.90;;;;;;5034529;28;20506;-75
2023/07/13 06:14:02;;;;;;;14.23;5.38;;;18.20;99.90;;;;;;5049864;28;20548;-74
2023/07/13 06:16:28;;;;;;;17.58;6.20;;;18.20;99.90;;;;;;5059230;28;20735;-73
2023/07/13 06:18:55;;;;;;;12.82;5.07;;;18.40;99.90;;;;;;5060161;28;20032;-74
2023/07/13 06:21:23;;;;;;;12.18;5.95;;;18.50;99.90;;;;;;5039825;28;20226;-74
2023/07/13 06:23:51;;;;;;;18.92;8.00;;;18.60;99.90;;;;;;5042931;28;20414;-74
2023/07/13 06:26:19;;;;;;;12.85;5.90;;;18.80;99.90;;;;;;5051837;28;20603;-73
2023/07/13 06:28:45;;;;;;;21.25;10.65;;;18.80;99.90;;;;;;5052532;28;20047;-72
2023/07/13 06:31:13;;;;;;;19.70;8.48;;;18.90;99.90;;;;;;5051810;28;20043;-72
2023/07/13 06:33:40;;;;;;;12.68;5.65;;;18.90;99.90;;;;;;5047680;28;20040;-72
2023/07/13 06:36:08;;;;;;;13.05;6.10;;;18.90;99.90;;;;;;5039917;28;20199;-72
2023/07/13 06:38:34;;;;;;;14.18;6.43;;;19.00;99.90;;;;;;5058719;28;20032;-72
2023/07/13 06:41:01;;;;;;;14.15;7.40;;;19.00;99.90;;;;;;5043195;28;20407;-72
2023/07/13 06:43:29;;;;;;;18.67;7.80;;;19.00;99.90;;;;;;5044645;28;20052;-75
2023/07/13 06:45:56;;;;;;;11.25;6.18;;;19.10;99.90;;;;;;5053501;28;20040;-72
2023/07/13 06:48:22;;;;;;;18.50;6.72;;;19.20;99.90;;;;;;5053593;28;20455;-72
2023/07/13 06:50:51;;;;;;;15.02;6.75;;;19.30;99.90;;;;;;5050270;28;20047;-72
2023/07/13 06:53:18;;;;;;;14.65;7.45;;;19.40;99.90;;;;;;5021854;28;20984;-72
2023/07/13 06:55:46;;;;;;;14.07;6.38;;;19.40;99.90;;;;;;5051932;28;20274;-72
2023/07/13 06:58:13;;;;;;;16.25;7.00;;;19.50;99.90;;;;;;5058805;28;20036;-72
2023/07/13 07:00:40;;;;;;;15.68;6.90;;;19.50;99.90;;;;;;5076020;28;20059;-72
2023/07/13 07:03:06;;;;;;;16.20;7.63;;;19.60;99.90;;;;;;5041553;28;20402;-72
2023/07/13 07:05:33;;;;;;;13.05;6.38;;;19.80;99.90;;;;;;5052354;28;20028;-71
2023/07/13 07:07:59;;;;;;;19.55;9.30;;;19.90;99.90;;;;;;5050115;28;20040;-72
2023/07/13 07:10:26;;;;;;;17.48;10.02;;;19.90;99.90;;;;;;5051913;28;20035;-72
2023/07/13 07:12:53;;;;;;;12.13;7.60;;;19.90;99.90;;;;;;5041702;28;20055;-72
2023/07/13 07:15:19;;;;;;;12.50;7.35;;;19.90;99.90;;;;;;5064677;28;20032;-72
2023/07/13 07:17:46;;;;;;;14.80;7.82;;;20.00;99.90;;;;;;5073715;28;20482;-72
2023/07/13 07:20:13;;;;;;;14.02;6.65;;;20.10;99.90;;;;;;5058054;28;20028;-72
2023/07/13 07:22:39;;;;;;;18.02;10.10;;;20.10;99.90;;;;;;5043714;28;20036;-73
2023/07/13 07:25:06;;;;;;;14.35;7.93;;;20.20;99.90;;;;;;5035140;28;20040;-72
2023/07/13 07:27:33;;;;;;;12.65;5.57;;;20.20;99.90;;;;;;5051320;28;20035;-72
2023/07/13 07:29:59;;;;;;;14.68;8.32;;;20.30;99.90;;;;;;5052054;28;20039;-74
2023/07/13 07:32:26;;;;;;;18.77;8.57;;;20.30;99.90;;;;;;5042866;28;20915;-72
2023/07/13 07:34:52;;;;;;;17.77;6.65;;;20.40;99.90;;;;;;5050691;28;20036;-72
2023/07/13 07:37:19;;;;;;;16.88;8.63;;;20.40;99.90;;;;;;5056429;28;20036;-73
2023/07/13 07:39:45;;;;;;;15.80;8.40;;;20.40;99.90;;;;;;5024342;28;20044;-73
2023/07/13 07:42:12;;;;;;;13.32;6.45;;;20.50;99.90;;;;;;5051022;28;20043;-73
2023/07/13 07:44:40;;;;;;;14.70;7.78;;;20.50;99.90;;;;;;5049380;28;20283;-73
2023/07/13 07:47:08;;;;;;;14.75;8.20;;;20.50;99.90;;;;;;5053400;28;20543;-72
2023/07/13 07:49:36;;;;;;;13.93;6.72;;;20.60;99.90;;;;;;5052917;28;20688;-72
2023/07/13 07:52:03;;;;;;;16.13;8.75;;;20.70;99.90;;;;;;5045867;28;20040;-72
2023/07/13 07:54:29;;;;;;;15.63;8.70;;;20.90;99.90;;;;;;5050236;28;20052;-73
2023/07/13 07:56:56;;;;;;;16.67;7.47;;;21.20;99.90;;;;;;5056703;28;20824;-72
2023/07/13 07:59:22;;;;;;;14.68;7.88;;;21.50;99.90;;;;;;5059116;28;20368;-72
2023/07/13 08:01:50;;;;;;;15.13;7.05;;;21.70;99.90;;;;;;5052007;28;20043;-72
2023/07/13 08:04:17;;;;;;;12.18;5.95;;;21.80;99.90;;;;;;5061798;27;20046;-72
2023/07/13 08:06:43;;;;;;;13.27;6.07;;;21.90;99.90;;;;;;5048792;28;20058;-72
2023/07/13 08:09:09;;;;;;;12.13;6.95;;;21.90;99.90;;;;;;5062603;27;20032;-72
2023/07/13 08:11:36;;;;;;;18.23;7.93;;;22.10;99.90;;;;;;5048888;28;20070;-72
2023/07/13 08:14:03;;;;;;;13.40;5.47;;;22.20;99.90;;;;;;5043100;28;20050;-71
2023/07/13 08:16:30;;;;;;;15.05;6.82;;;22.40;99.90;;;;;;5051813;28;20036;-72
2023/07/13 08:18:56;;;;;;;14.50;8.45;;;22.70;99.90;;;;;;5059248;28;20036;-72
2023/07/13 08:21:22;;;;;;;10.02;5.55;;;23.00;99.90;;;;;;5057772;28;20039;-72
2023/07/13 08:23:49;;;;;;;14.13;6.72;;;23.30;99.90;;;;;;5046238;28;20032;-72
2023/07/13 08:26:16;;;;;;;15.68;6.97;;;23.50;99.90;;;;;;5052363;28;20975;-72
2023/07/13 08:28:42;;;;;;;10.70;5.20;;;23.50;99.90;;;;;;5052306;28;20398;-72
2023/07/13 08:31:10;;;;;;;12.73;8.20;;;23.50;99.90;;;;;;5051376;28;20047;-72
2023/07/13 08:33:36;;;;;;;14.25;6.25;;;23.50;99.90;;;;;;5044406;28;20063;-72
2023/07/13 08:36:05;;;;;;;12.07;6.78;;;23.50;99.90;;;;;;5049495;28;20590;-72
2023/07/13 08:38:31;;;;;;;12.02;6.80;;;23.60;99.90;;;;;;5052839;28;20454;-72
2023/07/13 08:40:58;;;;;;;14.02;7.03;;;23.80;99.90;;;;;;5060875;28;20055;-72
2023/07/13 08:43:37;;;;;;;11.50;6.03;;;24.10;99.90;;;;;;5046749;28;20048;-71
2023/07/13 08:46:16;;;;;;;12.70;5.25;;;24.50;99.90;;;;;;5019915;28;20059;-72
2023/07/13 08:48:50;;;;;;;10.15;4.90;;;24.70;99.90;;;;;;5051518;28;20059;-72
2023/07/13 08:51:46;;;;;;;12.57;7.18;;;25.00;99.90;;;;;;5065681;28;20587;-72
2023/07/13 08:54:38;;;;;;;9.45;4.10;;;25.00;99.90;;;;;;5043288;28;20039;-72
2023/07/13 08:57:21;;;;;;;14.77;6.65;;;24.60;99.90;;;;;;5063737;28;21026;-71
2023/07/13 08:59:47;;;;;;;12.90;5.90;;;23.90;99.90;;;;;;5048861;28;20743;-72
2023/07/13 09:02:14;;;;;;;11.93;7.32;;;23.10;99.90;;;;;;5046970;28;20038;-72
2023/07/13 09:04:49;;;;;;;19.80;9.15;;;22.50;99.90;;;;;;5048791;28;20050;-72
2023/07/13 09:07:37;;;;;;;15.32;7.03;;;22.10;99.90;;;;;;5048160;28;20028;-72
2023/07/13 09:10:28;;;;;;;13.82;6.55;;;21.70;99.90;;;;;;5043913;28;20044;-72
2023/07/13 09:13:42;;;;;;;7.93;5.40;;;21.50;99.90;;;;;;5062150;28;20074;-73
2023/07/13 09:16:11;;;;;;;11.40;6.22;;;21.60;99.90;;;;;;5030388;28;20079;-73
2023/07/13 09:19:05;;;;;;;15.05;5.65;;;22.10;99.90;;;;;;5032519;28;20040;-72
2023/07/13 09:21:38;;;;;;;7.40;3.97;;;22.60;99.90;;;;;;5028830;28;20051;-73
2023/07/13 09:24:23;;;;;;;7.88;4.15;;;22.90;99.90;;;;;;5048630;28;20021;-73
2023/07/13 09:26:50;;;;;;;11.70;4.78;;;23.00;99.90;;;;;;5048382;28;20040;-72
2023/07/13 09:29:27;;;;;;;11.27;4.75;;;23.20;99.90;;;;;;5045814;28;22982;-72
2023/07/13 09:31:58;;;;;;;6.15;3.28;;;23.50;99.90;;;;;;5050545;28;20032;-74
2023/07/13 09:34:26;;;;;;;11.57;4.40;;;23.60;99.90;;;;;;5057659;28;20363;-73
2023/07/13 09:36:52;;;;;;;10.85;3.47;;;23.70;99.90;;;;;;5059070;28;20071;-73
2023/07/13 09:39:33;;;;;;;7.53;3.20;;;23.80;99.90;;;;;;5067980;28;20039;-73
2023/07/13 09:42:08;;;;;;;12.10;4.50;;;23.60;99.90;;;;;;5049993;28;20028;-72
2023/07/13 09:44:37;;;;;;;6.80;3.67;;;23.00;99.90;;;;;;5045382;28;20052;-70
2023/07/13 09:47:19;;;;;;;7.35;3.75;;;22.20;99.90;;;;;;5050844;28;20039;-72
2023/07/13 09:49:47;;;;;;;6.68;2.60;;;21.40;99.90;;;;;;5044451;28;20036;-72
2023/07/13 09:52:16;;;;;;;4.80;1.85;;;20.90;99.90;;;;;;5050582;28;20032;-71
2023/07/13 09:54:48;;;;;;;5.15;1.50;;;20.70;99.90;;;;;;5056162;28;20041;-71
2023/07/13 09:57:16;;;;;;;;;;;20.60;99.90;;;;;;5059913;28;20028;-72
2023/07/13 09:59:49;;;;;;;3.30;1.38;;;20.60;99.90;;;;;;5049215;28;20922;-72
2023/07/13 10:02:35;;;;;;;3.75;1.80;;;20.70;99.90;;;;;;5050781;28;20032;-71
2023/07/13 10:05:05;;;;;;;4.50;2.13;;;20.80;99.90;;;;;;5062659;28;20028;-70
2023/07/13 10:07:32;;;;;;;8.15;2.78;;;20.90;99.90;;;;;;5047365;28;20032;-71
2023/07/13 10:10:00;;;;;;;4.65;2.20;;;21.00;99.90;;;;;;5042179;28;20048;-70
2023/07/13 10:12:30;;;;;;;5.38;2.45;;;21.10;99.90;;;;;;5050680;28;20035;-70
2023/07/13 10:15:00;;;;;;;6.00;2.25;;;21.20;99.90;;;;;;5052153;28;20032;-70
2023/07/13 10:17:30;;;;;;;5.90;2.03;;;21.40;99.90;;;;;;5057760;28;20031;-70
2023/07/13 10:20:04;;;;;;;7.97;2.67;;;21.60;99.90;;;;;;5052686;28;20032;-70
2023/07/13 10:22:42;;;;;;;7.25;3.13;;;21.90;99.90;;;;;;5047966;28;20058;-71
2023/07/13 10:25:17;;;;;;;7.15;3.10;;;22.20;99.90;;;;;;5066926;28;20857;-70
2023/07/13 10:27:44;;;;;;;6.20;2.60;;;22.40;99.90;;;;;;5048671;28;20032;-71
2023/07/13 10:30:20;;;;;;;7.43;2.50;;;22.60;99.90;;;;;;5049236;28;20036;-71
2023/07/13 10:32:47;;;;;;;8.88;2.90;;;22.80;99.90;;;;;;5065703;28;20486;-72
2023/07/13 10:35:17;;;;;;;5.22;2.70;;;23.10;99.90;;;;;;5056517;28;20075;-72
2023/07/13 10:38:06;;;;;;;7.53;2.45;;;23.50;99.90;;;;;;5064822;28;20506;-70
2023/07/13 10:40:41;;;;;;;6.45;2.00;;;24.00;99.90;;;;;;5041850;28;20205;-71
2023/07/13 10:43:26;;;;;;;11.85;2.67;;;24.00;99.90;;;;;;5053692;28;20040;-72
2023/07/13 10:45:54;;;;;;;10.20;2.80;;;23.90;99.90;;;;;;5052762;28;20058;-72
2023/07/13 10:48:23;;;;;;;8.50;2.47;;;23.90;99.90;;;;;;5047527;28;21342;-73
2023/07/13 10:50:53;;;;;;;6.68;1.85;;;24.10;99.90;;;;;;5052753;28;20601;-72
2023/07/13 10:53:30;;;;;;;7.88;1.90;;;24.20;99.90;;;;;;5033403;28;20043;-72
2023/07/13 10:56:02;;;;;;;7.53;1.70;;;24.00;99.90;;;;;;5054556;28;20028;-72
2023/07/13 10:58:43;;;;;;;4.45;1.33;;;23.60;99.90;;;;;;5056980;28;20027;-71
2023/07/13 11:01:17;;;;;;;7.75;2.67;;;23.20;99.90;;;;;;5058721;28;20024;-72
2023/07/13 11:03:43;;;;;;;6.82;2.50;;;23.30;99.90;;;;;;5048747;28;20043;-71
2023/07/13 11:06:29;;;;;;;5.93;2.22;;;23.80;99.90;;;;;;5052979;28;20044;-72
2023/07/13 11:08:58;;;;;;;4.68;1.90;;;24.60;99.90;;;;;;5046972;28;20063;-72
2023/07/13 11:11:27;;;;;;;3.58;1.48;;;25.60;99.90;;;;;;5051572;28;20036;-72
2023/07/13 11:13:53;;;;;;;6.90;1.70;;;26.00;99.90;;;;;;5063274;28;20048;-72
2023/07/13 11:16:20;;;;;;;7.03;1.33;;;26.20;99.90;;;;;;5055674;28;20024;-72
2023/07/13 11:18:49;;;;;;;4.95;1.55;;;26.30;99.90;;;;;;5051839;28;20043;-72
2023/07/13 11:21:26;;;;;;;7.10;1.85;;;26.10;99.90;;;;;;5059913;28;20130;-72
2023/07/13 11:24:01;;;;;;;10.10;3.33;;;25.70;99.90;;;;;;5052711;28;20051;-72
2023/07/13 11:26:37;;;;;;;6.45;1.83;;;25.30;99.90;;;;;;5035653;28;20028;-72
2023/07/13 11:29:36;;;;;;;3.60;1.30;;;24.70;99.90;;;;;;5045623;28;20523;-72
2023/07/13 11:32:26;;;;;;;4.38;1.50;;;24.20;99.90;;;;;;5020268;28;20028;-72
2023/07/13 11:34:54;;;;;;;5.18;1.83;;;23.70;99.90;;;;;;5049955;28;20035;-72
2023/07/13 11:37:23;;;;;;;4.20;1.50;;;23.30;99.90;;;;;;5039981;28;20028;-72
2023/07/13 11:39:51;;;;;;;3.88;1.50;;;23.30;99.90;;;;;;5034242;28;20039;-72
2023/07/13 11:42:20;;;;;;;4.70;1.85;;;23.30;99.90;;;;;;5043828;28;20403;-73
2023/07/13 11:44:49;;;;;;;5.53;2.05;;;23.80;99.90;;;;;;5052413;28;20051;-73
2023/07/13 11:47:21;;;;;;;3.70;1.60;;;24.50;99.90;;;;;;5051333;28;20251;-73
2023/07/13 11:49:56;;;;;;;2.83;1.45;;;24.90;99.90;;;;;;5048990;28;20036;-73
2023/07/13 11:52:34;;;;;;;2.75;1.20;;;25.00;99.90;;;;;;5051479;28;20043;-73
2023/07/13 11:55:02;;;;;;;3.88;1.20;;;25.20;99.90;;;;;;5051094;28;22614;-73
2023/07/13 11:57:33;;;;;;;3.75;1.33;;;25.50;99.90;;;;;;5055370;28;20028;-73
2023/07/13 12:00:11;;;;;;;3.83;0.97;;;25.70;99.90;;;;;;5056993;28;20036;-73
2023/07/13 12:02:42;;;;;;;4.03;0.80;;;25.90;99.90;;;;;;5059216;28;20055;-73
2023/07/13 12:05:12;;;;;;;;;;;25.80;99.90;;;;;;5051057;28;20051;-73
2023/07/13 12:07:39;;;;;;;3.42;0.80;;;25.60;99.90;;;;;;5082445;27;19916;-73
2023/07/13 12:10:09;;;;;;;1.70;0.70;;;25.40;99.90;;;;;;5029092;28;20063;-73
2023/07/13 12:12:40;;;;;;;2.58;0.70;;;25.20;99.90;;;;;;5051042;28;20028;-74
2023/07/13 12:15:07;;;;;;;4.00;1.40;;;25.00;99.90;;;;;;5066367;28;20039;-74
2023/07/13 12:17:35;;;;;;;2.75;0.90;;;24.70;99.90;;;;;;5051667;28;20039;-74
2023/07/13 12:20:16;;;;;;;3.17;1.15;;;24.50;99.90;;;;;;5054975;28;20051;-74
2023/07/13 12:22:47;;;;;;;5.28;1.27;;;24.70;99.90;;;;;;5059704;28;20036;-76
2023/07/13 12:25:14;;;;;;;4.93;1.40;;;25.10;99.90;;;;;;5056801;28;20051;-74
2023/07/13 12:27:42;;;;;;;4.15;1.50;;;26.20;99.90;;;;;;5018960;28;20040;-74
2023/07/13 12:30:23;;;;;;;4.53;1.70;;;27.50;99.90;;;;;;5043892;28;20450;-74
2023/07/13 12:33:01;;;;;;;4.93;1.50;;;29.00;99.90;;;;;;5047193;28;20036;-74
2023/07/13 12:35:35;;;;;;;4.25;0.90;;;30.10;98.40;;;;;;5063362;28;20625;-71
2023/07/13 12:38:01;;;;;;;4.15;0.93;;;30.60;96.40;;;;;;5047779;28;20522;-72
2023/07/13 12:40:34;;;;;;;4.68;0.90;;;30.30;95.10;;;;;;5050502;28;20410;-75
2023/07/13 12:43:04;;;;;;;4.45;1.00;;;30.00;94.70;;;;;;5057638;28;20042;-74
2023/07/13 12:45:30;;;;;;;2.83;0.88;;;29.20;94.00;;;;;;5036053;28;20039;-74
2023/07/13 12:48:05;;;;;;;2.88;0.90;;;28.40;94.00;;;;;;5029292;28;20722;-74
2023/07/13 12:50:40;;;;;;;2.78;1.10;;;27.60;94.50;;;;;;5047791;28;20056;-74
2023/07/13 12:53:14;;;;;;;5.57;1.00;;;26.90;95.20;;;;;;5048484;28;20121;-75
2023/07/13 12:55:50;;;;;;;2.58;0.70;;;26.20;95.70;;;;;;5048663;28;20028;-74